sensor_id;sensor_type;location;lat;lon;timestamp;P1;durP1;ratioP1;P2;durP2;ratioP2
77722;SDS011;67811;42.656;23.394;2023-10-08T00:00:12;5.00;;;2.03;;
77722;SDS011;67811;42.656;23.394;2023-10-08T00:02:37;5.85;;;1.92;;
77722;SDS011;67811;42.656;23.394;2023-10-08T00:05:02;5.73;;;2.90;;
77722;SDS011;67811;42.656;23.394;2023-10-08T00:07:28;5.90;;;2.42;;
77722;SDS011;67811;42.656;23.394;2023-10-08T00:09:53;5.73;;;2.33;;
77722;SDS011;67811;42.656;23.394;2023-10-08T00:12:19;5.63;;;2.43;;
77722;SDS011;67811;42.656;23.394;2023-10-08T00:14:45;4.20;;;1.80;;
77722;SDS011;67811;42.656;23.394;2023-10-08T00:17:11;5.28;;;2.28;;
77722;SDS011;67811;42.656;23.394;2023-10-08T00:19:37;6.90;;;2.55;;
77722;SDS011;67811;42.656;23.394;2023-10-08T00:22:02;5.27;;;2.10;;
77722;SDS011;67811;42.656;23.394;2023-10-08T00:24:27;4.87;;;1.90;;
77722;SDS011;67811;42.656;23.394;2023-10-08T00:26:53;4.77;;;2.20;;
77722;SDS011;67811;42.656;23.394;2023-10-08T00:29:18;5.30;;;2.33;;
77722;SDS011;67811;42.656;23.394;2023-10-08T00:31:44;5.93;;;2.10;;
77722;SDS011;67811;42.656;23.394;2023-10-08T00:34:10;5.32;;;2.22;;
77722;SDS011;67811;42.656;23.394;2023-10-08T00:36:39;7.72;;;2.35;;
77722;SDS011;67811;42.656;23.394;2023-10-08T00:39:08;4.80;;;2.28;;
77722;SDS011;67811;42.656;23.394;2023-10-08T00:41:34;6.97;;;2.20;;
77722;SDS011;67811;42.656;23.394;2023-10-08T00:43:59;5.17;;;2.60;;
77722;SDS011;67811;42.656;23.394;2023-10-08T00:46:25;3.83;;;1.87;;
77722;SDS011;67811;42.656;23.394;2023-10-08T00:48:53;6.53;;;3.03;;
77722;SDS011;67811;42.656;23.394;2023-10-08T00:51:23;5.13;;;2.15;;
77722;SDS011;67811;42.656;23.394;2023-10-08T00:54:11;5.18;;;1.88;;
77722;SDS011;67811;42.656;23.394;2023-10-08T00:56:37;6.05;;;2.47;;
77722;SDS011;67811;42.656;23.394;2023-10-08T00:59:02;4.55;;;2.00;;
77722;SDS011;67811;42.656;23.394;2023-10-08T01:01:28;3.22;;;1.58;;
77722;SDS011;67811;42.656;23.394;2023-10-08T01:03:53;3.53;;;2.17;;
77722;SDS011;67811;42.656;23.394;2023-10-08T01:06:18;5.63;;;2.57;;
77722;SDS011;67811;42.656;23.394;2023-10-08T01:08:44;4.18;;;1.90;;
77722;SDS011;67811;42.656;23.394;2023-10-08T01:11:20;2.80;;;1.40;;
77722;SDS011;67811;42.656;23.394;2023-10-08T01:13:47;5.30;;;1.98;;
77722;SDS011;67811;42.656;23.394;2023-10-08T01:16:12;5.13;;;2.40;;
77722;SDS011;67811;42.656;23.394;2023-10-08T01:18:38;5.82;;;2.28;;
77722;SDS011;67811;42.656;23.394;2023-10-08T01:21:03;6.03;;;2.17;;
77722;SDS011;67811;42.656;23.394;2023-10-08T01:23:28;6.87;;;2.40;;
77722;SDS011;67811;42.656;23.394;2023-10-08T01:25:53;6.20;;;2.33;;
77722;SDS011;67811;42.656;23.394;2023-10-08T01:28:19;5.53;;;1.90;;
77722;SDS011;67811;42.656;23.394;2023-10-08T01:30:44;6.43;;;2.45;;
77722;SDS011;67811;42.656;23.394;2023-10-08T01:33:09;5.87;;;2.40;;
77722;SDS011;67811;42.656;23.394;2023-10-08T01:35:35;6.50;;;2.30;;
77722;SDS011;67811;42.656;23.394;2023-10-08T01:38:00;5.57;;;2.03;;
77722;SDS011;67811;42.656;23.394;2023-10-08T01:40:26;5.23;;;2.43;;
77722;SDS011;67811;42.656;23.394;2023-10-08T01:42:52;5.35;;;2.10;;
77722;SDS011;67811;42.656;23.394;2023-10-08T01:45:17;5.72;;;2.85;;
77722;SDS011;67811;42.656;23.394;2023-10-08T01:47:42;6.93;;;1.90;;
77722;SDS011;67811;42.656;23.394;2023-10-08T01:50:08;4.93;;;2.37;;
77722;SDS011;67811;42.656;23.394;2023-10-08T01:52:33;6.13;;;2.30;;
77722;SDS011;67811;42.656;23.394;2023-10-08T01:54:58;5.60;;;2.13;;
77722;SDS011;67811;42.656;23.394;2023-10-08T01:57:23;5.50;;;2.30;;
77722;SDS011;67811;42.656;23.394;2023-10-08T01:59:49;5.80;;;2.80;;
77722;SDS011;67811;42.656;23.394;2023-10-08T02:02:14;5.33;;;2.33;;
77722;SDS011;67811;42.656;23.394;2023-10-08T02:04:39;5.23;;;2.37;;
77722;SDS011;67811;42.656;23.394;2023-10-08T02:07:05;6.20;;;2.37;;
77722;SDS011;67811;42.656;23.394;2023-10-08T02:09:31;5.85;;;2.03;;
77722;SDS011;67811;42.656;23.394;2023-10-08T02:11:56;5.50;;;1.80;;
77722;SDS011;67811;42.656;23.394;2023-10-08T02:14:21;5.13;;;2.13;;
77722;SDS011;67811;42.656;23.394;2023-10-08T02:16:48;5.63;;;2.13;;
77722;SDS011;67811;42.656;23.394;2023-10-08T02:19:16;6.28;;;2.13;;
77722;SDS011;67811;42.656;23.394;2023-10-08T02:21:41;4.87;;;2.20;;
77722;SDS011;67811;42.656;23.394;2023-10-08T02:24:07;4.83;;;2.13;;
77722;SDS011;67811;42.656;23.394;2023-10-08T02:26:33;5.80;;;1.90;;
77722;SDS011;67811;42.656;23.394;2023-10-08T02:28:58;5.45;;;2.53;;
77722;SDS011;67811;42.656;23.394;2023-10-08T02:31:23;6.33;;;2.57;;
77722;SDS011;67811;42.656;23.394;2023-10-08T02:33:48;5.60;;;2.40;;
77722;SDS011;67811;42.656;23.394;2023-10-08T02:36:14;6.17;;;2.57;;
77722;SDS011;67811;42.656;23.394;2023-10-08T02:38:39;7.20;;;2.63;;
77722;SDS011;67811;42.656;23.394;2023-10-08T02:41:04;4.27;;;2.07;;
77722;SDS011;67811;42.656;23.394;2023-10-08T02:43:29;4.17;;;1.93;;
77722;SDS011;67811;42.656;23.394;2023-10-08T02:45:55;6.93;;;2.40;;
77722;SDS011;67811;42.656;23.394;2023-10-08T02:48:20;5.90;;;2.43;;
77722;SDS011;67811;42.656;23.394;2023-10-08T02:50:45;4.47;;;2.17;;
77722;SDS011;67811;42.656;23.394;2023-10-08T02:53:11;7.13;;;2.87;;
77722;SDS011;67811;42.656;23.394;2023-10-08T02:55:37;6.15;;;2.30;;
77722;SDS011;67811;42.656;23.394;2023-10-08T02:58:03;5.70;;;2.40;;
77722;SDS011;67811;42.656;23.394;2023-10-08T03:00:29;6.47;;;2.60;;
77722;SDS011;67811;42.656;23.394;2023-10-08T03:02:55;5.10;;;2.05;;
77722;SDS011;67811;42.656;23.394;2023-10-08T03:05:21;4.90;;;2.20;;
77722;SDS011;67811;42.656;23.394;2023-10-08T03:07:46;6.23;;;2.20;;
77722;SDS011;67811;42.656;23.394;2023-10-08T03:10:12;5.50;;;2.23;;
77722;SDS011;67811;42.656;23.394;2023-10-08T03:12:37;6.90;;;2.70;;
77722;SDS011;67811;42.656;23.394;2023-10-08T03:15:02;5.50;;;2.30;;
77722;SDS011;67811;42.656;23.394;2023-10-08T03:17:28;5.28;;;2.15;;
77722;SDS011;67811;42.656;23.394;2023-10-08T03:19:53;5.40;;;2.00;;
77722;SDS011;67811;42.656;23.394;2023-10-08T03:22:19;7.10;;;2.43;;
77722;SDS011;67811;42.656;23.394;2023-10-08T03:24:44;7.63;;;2.70;;
77722;SDS011;67811;42.656;23.394;2023-10-08T03:27:09;6.93;;;3.10;;
77722;SDS011;67811;42.656;23.394;2023-10-08T03:29:35;5.73;;;2.13;;
77722;SDS011;67811;42.656;23.394;2023-10-08T03:32:00;8.20;;;2.53;;
77722;SDS011;67811;42.656;23.394;2023-10-08T03:34:26;5.10;;;2.30;;
77722;SDS011;67811;42.656;23.394;2023-10-08T03:36:51;6.33;;;2.70;;
77722;SDS011;67811;42.656;23.394;2023-10-08T03:39:17;7.63;;;2.70;;
77722;SDS011;67811;42.656;23.394;2023-10-08T03:41:42;5.30;;;2.30;;
77722;SDS011;67811;42.656;23.394;2023-10-08T03:44:08;5.65;;;2.40;;
77722;SDS011;67811;42.656;23.394;2023-10-08T03:46:34;5.88;;;2.22;;
77722;SDS011;67811;42.656;23.394;2023-10-08T03:48:59;6.30;;;2.57;;
77722;SDS011;67811;42.656;23.394;2023-10-08T03:51:24;3.70;;;2.30;;
77722;SDS011;67811;42.656;23.394;2023-10-08T03:53:49;3.97;;;2.13;;
77722;SDS011;67811;42.656;23.394;2023-10-08T03:56:15;6.40;;;2.53;;
77722;SDS011;67811;42.656;23.394;2023-10-08T03:58:40;6.60;;;2.53;;
77722;SDS011;67811;42.656;23.394;2023-10-08T04:01:05;3.80;;;1.60;;
77722;SDS011;67811;42.656;23.394;2023-10-08T04:03:31;4.45;;;1.63;;
77722;SDS011;67811;42.656;23.394;2023-10-08T04:05:56;4.67;;;1.63;;
77722;SDS011;67811;42.656;23.394;2023-10-08T04:08:21;4.67;;;2.10;;
77722;SDS011;67811;42.656;23.394;2023-10-08T04:10:46;4.47;;;1.90;;
77722;SDS011;67811;42.656;23.394;2023-10-08T04:13:12;6.37;;;2.50;;
77722;SDS011;67811;42.656;23.394;2023-10-08T04:15:37;5.40;;;2.30;;
77722;SDS011;67811;42.656;23.394;2023-10-08T04:18:03;5.57;;;2.40;;
77722;SDS011;67811;42.656;23.394;2023-10-08T04:20:28;6.03;;;2.03;;
77722;SDS011;67811;42.656;23.394;2023-10-08T04:22:54;5.57;;;2.10;;
77722;SDS011;67811;42.656;23.394;2023-10-08T04:25:19;4.30;;;1.87;;
77722;SDS011;67811;42.656;23.394;2023-10-08T04:27:44;4.77;;;2.30;;
77722;SDS011;67811;42.656;23.394;2023-10-08T04:30:10;4.47;;;2.00;;
77722;SDS011;67811;42.656;23.394;2023-10-08T04:32:35;6.07;;;2.53;;
77722;SDS011;67811;42.656;23.394;2023-10-08T04:35:01;5.27;;;2.20;;
77722;SDS011;67811;42.656;23.394;2023-10-08T04:37:26;4.47;;;1.97;;
77722;SDS011;67811;42.656;23.394;2023-10-08T04:39:51;4.57;;;1.63;;
77722;SDS011;67811;42.656;23.394;2023-10-08T04:42:17;3.40;;;1.47;;
77722;SDS011;67811;42.656;23.394;2023-10-08T04:44:42;5.27;;;2.60;;
77722;SDS011;67811;42.656;23.394;2023-10-08T04:47:07;5.50;;;2.33;;
77722;SDS011;67811;42.656;23.394;2023-10-08T04:49:33;5.90;;;2.57;;
77722;SDS011;67811;42.656;23.394;2023-10-08T04:51:59;6.90;;;2.42;;
77722;SDS011;67811;42.656;23.394;2023-10-08T04:54:25;6.28;;;2.78;;
77722;SDS011;67811;42.656;23.394;2023-10-08T04:56:51;6.43;;;2.85;;
77722;SDS011;67811;42.656;23.394;2023-10-08T04:59:17;6.67;;;2.90;;
77722;SDS011;67811;42.656;23.394;2023-10-08T05:01:42;7.40;;;2.80;;
77722;SDS011;67811;42.656;23.394;2023-10-08T05:04:07;5.13;;;2.47;;
77722;SDS011;67811;42.656;23.394;2023-10-08T05:06:33;6.33;;;2.93;;
77722;SDS011;67811;42.656;23.394;2023-10-08T05:08:59;7.72;;;2.92;;
77722;SDS011;67811;42.656;23.394;2023-10-08T05:11:24;7.17;;;3.03;;
77722;SDS011;67811;42.656;23.394;2023-10-08T05:13:50;8.53;;;2.60;;
77722;SDS011;67811;42.656;23.394;2023-10-08T05:16:15;5.43;;;2.40;;
77722;SDS011;67811;42.656;23.394;2023-10-08T05:18:40;8.97;;;3.00;;
77722;SDS011;67811;42.656;23.394;2023-10-08T05:21:05;7.53;;;2.53;;
77722;SDS011;67811;42.656;23.394;2023-10-08T05:23:31;5.67;;;2.93;;
77722;SDS011;67811;42.656;23.394;2023-10-08T05:25:56;7.30;;;3.03;;
77722;SDS011;67811;42.656;23.394;2023-10-08T05:28:22;7.90;;;3.17;;
77722;SDS011;67811;42.656;23.394;2023-10-08T05:30:48;7.17;;;3.17;;
77722;SDS011;67811;42.656;23.394;2023-10-08T05:33:13;10.73;;;3.20;;
77722;SDS011;67811;42.656;23.394;2023-10-08T05:35:39;5.40;;;2.77;;
77722;SDS011;67811;42.656;23.394;2023-10-08T05:38:06;8.65;;;4.70;;
77722;SDS011;67811;42.656;23.394;2023-10-08T05:40:32;7.63;;;3.53;;
77722;SDS011;67811;42.656;23.394;2023-10-08T05:42:57;8.03;;;3.60;;
77722;SDS011;67811;42.656;23.394;2023-10-08T05:45:22;7.67;;;3.30;;
77722;SDS011;67811;42.656;23.394;2023-10-08T05:47:47;7.03;;;3.40;;
77722;SDS011;67811;42.656;23.394;2023-10-08T05:50:13;13.87;;;4.13;;
77722;SDS011;67811;42.656;23.394;2023-10-08T05:52:38;6.43;;;3.60;;
77722;SDS011;67811;42.656;23.394;2023-10-08T05:55:03;7.70;;;3.17;;
77722;SDS011;67811;42.656;23.394;2023-10-08T05:57:29;6.43;;;3.17;;
77722;SDS011;67811;42.656;23.394;2023-10-08T05:59:54;6.57;;;3.60;;
77722;SDS011;67811;42.656;23.394;2023-10-08T06:02:19;6.93;;;3.50;;
77722;SDS011;67811;42.656;23.394;2023-10-08T06:04:45;6.03;;;2.92;;
77722;SDS011;67811;42.656;23.394;2023-10-08T06:07:10;7.47;;;3.37;;
77722;SDS011;67811;42.656;23.394;2023-10-08T06:09:36;9.93;;;4.37;;
77722;SDS011;67811;42.656;23.394;2023-10-08T06:12:01;6.40;;;3.20;;
77722;SDS011;67811;42.656;23.394;2023-10-08T06:14:26;6.80;;;3.40;;
77722;SDS011;67811;42.656;23.394;2023-10-08T06:16:52;6.97;;;3.33;;
77722;SDS011;67811;42.656;23.394;2023-10-08T06:19:18;6.63;;;3.50;;
77722;SDS011;67811;42.656;23.394;2023-10-08T06:21:43;6.47;;;3.37;;
77722;SDS011;67811;42.656;23.394;2023-10-08T06:24:08;8.10;;;3.23;;
77722;SDS011;67811;42.656;23.394;2023-10-08T06:26:35;7.95;;;3.28;;
77722;SDS011;67811;42.656;23.394;2023-10-08T06:29:01;7.72;;;3.20;;
77722;SDS011;67811;42.656;23.394;2023-10-08T06:31:27;6.60;;;3.10;;
77722;SDS011;67811;42.656;23.394;2023-10-08T06:33:52;7.97;;;3.37;;
77722;SDS011;67811;42.656;23.394;2023-10-08T06:36:17;7.43;;;3.53;;
77722;SDS011;67811;42.656;23.394;2023-10-08T06:38:43;7.17;;;3.77;;
77722;SDS011;67811;42.656;23.394;2023-10-08T06:41:11;6.45;;;3.28;;
77722;SDS011;67811;42.656;23.394;2023-10-08T06:43:37;8.88;;;3.70;;
77722;SDS011;67811;42.656;23.394;2023-10-08T06:46:03;6.70;;;3.10;;
77722;SDS011;67811;42.656;23.394;2023-10-08T06:48:29;6.53;;;3.60;;
77722;SDS011;67811;42.656;23.394;2023-10-08T06:50:55;6.50;;;3.80;;
77722;SDS011;67811;42.656;23.394;2023-10-08T06:53:21;7.15;;;3.88;;
77722;SDS011;67811;42.656;23.394;2023-10-08T06:55:46;7.10;;;3.50;;
77722;SDS011;67811;42.656;23.394;2023-10-08T06:58:11;10.50;;;4.60;;
77722;SDS011;67811;42.656;23.394;2023-10-08T07:00:37;8.57;;;4.03;;
77722;SDS011;67811;42.656;23.394;2023-10-08T07:03:02;10.13;;;4.13;;
77722;SDS011;67811;42.656;23.394;2023-10-08T07:05:28;9.53;;;4.70;;
77722;SDS011;67811;42.656;23.394;2023-10-08T07:07:54;9.93;;;4.30;;
77722;SDS011;67811;42.656;23.394;2023-10-08T07:10:19;7.90;;;4.22;;
77722;SDS011;67811;42.656;23.394;2023-10-08T07:12:44;7.63;;;4.27;;
77722;SDS011;67811;42.656;23.394;2023-10-08T07:15:10;8.37;;;4.70;;
77722;SDS011;67811;42.656;23.394;2023-10-08T07:17:35;8.87;;;4.60;;
77722;SDS011;67811;42.656;23.394;2023-10-08T07:20:00;7.83;;;4.37;;
77722;SDS011;67811;42.656;23.394;2023-10-08T07:22:25;10.33;;;4.20;;
77722;SDS011;67811;42.656;23.394;2023-10-08T07:24:51;8.30;;;4.10;;
77722;SDS011;67811;42.656;23.394;2023-10-08T07:27:17;9.47;;;4.47;;
77722;SDS011;67811;42.656;23.394;2023-10-08T07:29:42;10.30;;;5.03;;
77722;SDS011;67811;42.656;23.394;2023-10-08T07:32:08;10.83;;;4.80;;
77722;SDS011;67811;42.656;23.394;2023-10-08T07:34:33;11.57;;;4.77;;
77722;SDS011;67811;42.656;23.394;2023-10-08T07:36:58;11.00;;;5.03;;
77722;SDS011;67811;42.656;23.394;2023-10-08T07:39:23;13.67;;;4.93;;
77722;SDS011;67811;42.656;23.394;2023-10-08T07:41:49;10.37;;;5.30;;
77722;SDS011;67811;42.656;23.394;2023-10-08T07:44:14;10.30;;;4.72;;
77722;SDS011;67811;42.656;23.394;2023-10-08T07:46:40;8.98;;;4.90;;
77722;SDS011;67811;42.656;23.394;2023-10-08T07:49:05;10.97;;;5.47;;
77722;SDS011;67811;42.656;23.394;2023-10-08T07:51:30;9.73;;;4.83;;
77722;SDS011;67811;42.656;23.394;2023-10-08T07:53:56;10.40;;;4.57;;
77722;SDS011;67811;42.656;23.394;2023-10-08T07:56:21;11.47;;;4.97;;
77722;SDS011;67811;42.656;23.394;2023-10-08T07:58:51;8.88;;;4.95;;
77722;SDS011;67811;42.656;23.394;2023-10-08T08:01:18;11.00;;;5.35;;
77722;SDS011;67811;42.656;23.394;2023-10-08T08:03:44;11.10;;;4.90;;
77722;SDS011;67811;42.656;23.394;2023-10-08T08:06:09;11.63;;;4.97;;
77722;SDS011;67811;42.656;23.394;2023-10-08T08:08:35;11.25;;;5.68;;
77722;SDS011;67811;42.656;23.394;2023-10-08T08:11:02;10.40;;;5.00;;
77722;SDS011;67811;42.656;23.394;2023-10-08T08:13:28;11.65;;;5.85;;
77722;SDS011;67811;42.656;23.394;2023-10-08T08:15:54;16.00;;;5.40;;
77722;SDS011;67811;42.656;23.394;2023-10-08T08:18:20;10.77;;;5.43;;
77722;SDS011;67811;42.656;23.394;2023-10-08T08:20:45;10.53;;;5.20;;
77722;SDS011;67811;42.656;23.394;2023-10-08T08:23:10;12.07;;;4.40;;
77722;SDS011;67811;42.656;23.394;2023-10-08T08:25:39;13.93;;;4.63;;
77722;SDS011;67811;42.656;23.394;2023-10-08T08:28:06;8.80;;;4.95;;
77722;SDS011;67811;42.656;23.394;2023-10-08T08:30:31;12.47;;;5.90;;
77722;SDS011;67811;42.656;23.394;2023-10-08T08:32:56;10.83;;;4.87;;
77722;SDS011;67811;42.656;23.394;2023-10-08T08:35:21;11.23;;;4.50;;
77722;SDS011;67811;42.656;23.394;2023-10-08T08:37:47;7.70;;;4.60;;
77722;SDS011;67811;42.656;23.394;2023-10-08T08:40:12;9.50;;;5.10;;
77722;SDS011;67811;42.656;23.394;2023-10-08T08:42:37;12.60;;;4.63;;
77722;SDS011;67811;42.656;23.394;2023-10-08T08:45:05;11.20;;;4.63;;
77722;SDS011;67811;42.656;23.394;2023-10-08T08:47:37;8.52;;;4.20;;
77722;SDS011;67811;42.656;23.394;2023-10-08T08:50:03;11.25;;;4.43;;
77722;SDS011;67811;42.656;23.394;2023-10-08T08:52:28;8.63;;;3.80;;
77722;SDS011;67811;42.656;23.394;2023-10-08T08:54:53;9.73;;;3.97;;
77722;SDS011;67811;42.656;23.394;2023-10-08T08:57:19;8.57;;;3.87;;
77722;SDS011;67811;42.656;23.394;2023-10-08T08:59:48;10.23;;;4.30;;
77722;SDS011;67811;42.656;23.394;2023-10-08T09:02:17;10.25;;;4.22;;
77722;SDS011;67811;42.656;23.394;2023-10-08T09:04:42;22.10;;;4.28;;
77722;SDS011;67811;42.656;23.394;2023-10-08T09:07:08;9.00;;;3.77;;
77722;SDS011;67811;42.656;23.394;2023-10-08T09:09:33;9.57;;;3.40;;
77722;SDS011;67811;42.656;23.394;2023-10-08T09:11:59;12.20;;;3.40;;
77722;SDS011;67811;42.656;23.394;2023-10-08T09:14:25;8.32;;;3.10;;
77722;SDS011;67811;42.656;23.394;2023-10-08T09:16:55;7.80;;;3.55;;
77722;SDS011;67811;42.656;23.394;2023-10-08T09:19:21;8.40;;;3.20;;
77722;SDS011;67811;42.656;23.394;2023-10-08T09:24:32;10.00;;;3.45;;
77722;SDS011;67811;42.656;23.394;2023-10-08T09:26:59;7.97;;;3.00;;
77722;SDS011;67811;42.656;23.394;2023-10-08T09:29:25;6.90;;;2.83;;
77722;SDS011;67811;42.656;23.394;2023-10-08T09:31:56;8.57;;;3.10;;
77722;SDS011;67811;42.656;23.394;2023-10-08T09:34:29;7.40;;;2.90;;
77722;SDS011;67811;42.656;23.394;2023-10-08T09:36:55;10.85;;;3.15;;
77722;SDS011;67811;42.656;23.394;2023-10-08T09:39:22;6.75;;;2.63;;
77722;SDS011;67811;42.656;23.394;2023-10-08T09:41:55;12.30;;;2.65;;
77722;SDS011;67811;42.656;23.394;2023-10-08T09:44:22;8.40;;;2.67;;
77722;SDS011;67811;42.656;23.394;2023-10-08T09:46:51;8.90;;;3.00;;
77722;SDS011;67811;42.656;23.394;2023-10-08T09:49:17;6.50;;;2.50;;
77722;SDS011;67811;42.656;23.394;2023-10-08T09:51:49;6.60;;;2.75;;
77722;SDS011;67811;42.656;23.394;2023-10-08T09:54:18;14.10;;;3.30;;
77722;SDS011;67811;42.656;23.394;2023-10-08T09:56:48;7.63;;;2.80;;
77722;SDS011;67811;42.656;23.394;2023-10-08T09:59:14;12.45;;;3.08;;
77722;SDS011;67811;42.656;23.394;2023-10-08T10:01:41;8.63;;;3.28;;
77722;SDS011;67811;42.656;23.394;2023-10-08T10:04:08;7.88;;;3.30;;
77722;SDS011;67811;42.656;23.394;2023-10-08T10:06:34;11.02;;;2.97;;
77722;SDS011;67811;42.656;23.394;2023-10-08T10:09:00;7.22;;;2.72;;
77722;SDS011;67811;42.656;23.394;2023-10-08T10:11:25;8.70;;;2.93;;
77722;SDS011;67811;42.656;23.394;2023-10-08T10:13:52;8.45;;;3.17;;
77722;SDS011;67811;42.656;23.394;2023-10-08T10:16:23;11.38;;;3.13;;
77722;SDS011;67811;42.656;23.394;2023-10-08T10:18:49;6.90;;;2.87;;
77722;SDS011;67811;42.656;23.394;2023-10-08T10:23:40;6.33;;;2.23;;
77722;SDS011;67811;42.656;23.394;2023-10-08T10:31:33;6.20;;;2.10;;
77722;SDS011;67811;42.656;23.394;2023-10-08T10:33:58;6.47;;;2.78;;
77722;SDS011;67811;42.656;23.394;2023-10-08T10:36:28;6.50;;;2.22;;
77722;SDS011;67811;42.656;23.394;2023-10-08T10:38:54;7.13;;;2.40;;
77722;SDS011;67811;42.656;23.394;2023-10-08T10:41:20;6.15;;;2.30;;
77722;SDS011;67811;42.656;23.394;2023-10-08T10:43:45;14.43;;;2.90;;
77722;SDS011;67811;42.656;23.394;2023-10-08T10:46:10;16.77;;;2.93;;
77722;SDS011;67811;42.656;23.394;2023-10-08T10:48:36;17.80;;;3.33;;
77722;SDS011;67811;42.656;23.394;2023-10-08T10:51:01;10.90;;;2.93;;
77722;SDS011;67811;42.656;23.394;2023-10-08T10:53:26;6.20;;;2.28;;
77722;SDS011;67811;42.656;23.394;2023-10-08T10:55:52;10.73;;;3.20;;
77722;SDS011;67811;42.656;23.394;2023-10-08T10:58:17;16.38;;;3.40;;
77722;SDS011;67811;42.656;23.394;2023-10-08T11:00:44;7.32;;;3.00;;
77722;SDS011;67811;42.656;23.394;2023-10-08T11:03:09;5.85;;;2.35;;
77722;SDS011;67811;42.656;23.394;2023-10-08T11:05:35;5.40;;;2.20;;
77722;SDS011;67811;42.656;23.394;2023-10-08T11:10:31;11.02;;;2.78;;
77722;SDS011;67811;42.656;23.394;2023-10-08T11:12:56;5.55;;;2.65;;
77722;SDS011;67811;42.656;23.394;2023-10-08T11:15:22;11.43;;;3.20;;
77722;SDS011;67811;42.656;23.394;2023-10-08T11:17:48;8.13;;;2.93;;
77722;SDS011;67811;42.656;23.394;2023-10-08T11:20:25;8.07;;;2.80;;
77722;SDS011;67811;42.656;23.394;2023-10-08T11:22:52;16.33;;;3.53;;
77722;SDS011;67811;42.656;23.394;2023-10-08T11:25:21;10.50;;;2.42;;
77722;SDS011;67811;42.656;23.394;2023-10-08T11:27:47;12.23;;;2.80;;
77722;SDS011;67811;42.656;23.394;2023-10-08T11:30:12;8.43;;;2.53;;
77722;SDS011;67811;42.656;23.394;2023-10-08T11:32:39;6.80;;;2.40;;
77722;SDS011;67811;42.656;23.394;2023-10-08T11:35:05;9.30;;;2.67;;
77722;SDS011;67811;42.656;23.394;2023-10-08T11:37:31;11.52;;;3.50;;
77722;SDS011;67811;42.656;23.394;2023-10-08T11:39:57;10.60;;;2.97;;
77722;SDS011;67811;42.656;23.394;2023-10-08T11:42:23;9.93;;;2.70;;
77722;SDS011;67811;42.656;23.394;2023-10-08T11:44:49;12.10;;;2.80;;
77722;SDS011;67811;42.656;23.394;2023-10-08T11:47:14;7.80;;;2.63;;
77722;SDS011;67811;42.656;23.394;2023-10-08T11:49:40;15.33;;;3.03;;
77722;SDS011;67811;42.656;23.394;2023-10-08T11:52:05;6.85;;;2.95;;
77722;SDS011;67811;42.656;23.394;2023-10-08T11:54:31;11.27;;;2.90;;
77722;SDS011;67811;42.656;23.394;2023-10-08T11:56:56;9.60;;;2.80;;
77722;SDS011;67811;42.656;23.394;2023-10-08T11:59:21;24.10;;;3.83;;
77722;SDS011;67811;42.656;23.394;2023-10-08T12:01:46;7.87;;;2.97;;
77722;SDS011;67811;42.656;23.394;2023-10-08T12:04:12;10.87;;;3.30;;
77722;SDS011;67811;42.656;23.394;2023-10-08T12:06:37;11.30;;;2.67;;
77722;SDS011;67811;42.656;23.394;2023-10-08T12:09:03;10.43;;;3.28;;
77722;SDS011;67811;42.656;23.394;2023-10-08T12:11:28;11.73;;;3.08;;
77722;SDS011;67811;42.656;23.394;2023-10-08T12:13:53;9.57;;;2.93;;
77722;SDS011;67811;42.656;23.394;2023-10-08T12:16:20;13.60;;;2.60;;
77722;SDS011;67811;42.656;23.394;2023-10-08T12:18:45;20.63;;;4.20;;
77722;SDS011;67811;42.656;23.394;2023-10-08T12:21:10;23.73;;;4.13;;
77722;SDS011;67811;42.656;23.394;2023-10-08T12:23:36;12.90;;;3.07;;
77722;SDS011;67811;42.656;23.394;2023-10-08T12:26:02;11.38;;;2.50;;
77722;SDS011;67811;42.656;23.394;2023-10-08T12:28:27;16.43;;;2.93;;
77722;SDS011;67811;42.656;23.394;2023-10-08T12:30:53;13.40;;;3.23;;
77722;SDS011;67811;42.656;23.394;2023-10-08T12:33:18;17.33;;;3.88;;
77722;SDS011;67811;42.656;23.394;2023-10-08T12:35:44;11.63;;;2.63;;
77722;SDS011;67811;42.656;23.394;2023-10-08T12:38:09;10.02;;;2.90;;
77722;SDS011;67811;42.656;23.394;2023-10-08T12:40:35;12.80;;;3.33;;
77722;SDS011;67811;42.656;23.394;2023-10-08T12:43:01;10.32;;;2.35;;
77722;SDS011;67811;42.656;23.394;2023-10-08T12:45:26;7.73;;;2.93;;
77722;SDS011;67811;42.656;23.394;2023-10-08T12:47:52;7.80;;;2.97;;
77722;SDS011;67811;42.656;23.394;2023-10-08T12:50:17;12.55;;;3.08;;
77722;SDS011;67811;42.656;23.394;2023-10-08T12:52:46;8.57;;;2.53;;
77722;SDS011;67811;42.656;23.394;2023-10-08T12:55:11;35.27;;;4.60;;
77722;SDS011;67811;42.656;23.394;2023-10-08T12:57:36;10.73;;;2.87;;
77722;SDS011;67811;42.656;23.394;2023-10-08T13:00:02;6.70;;;2.57;;
77722;SDS011;67811;42.656;23.394;2023-10-08T13:02:27;9.00;;;3.22;;
77722;SDS011;67811;42.656;23.394;2023-10-08T13:04:52;7.20;;;2.40;;
77722;SDS011;67811;42.656;23.394;2023-10-08T13:07:17;7.23;;;2.40;;
77722;SDS011;67811;42.656;23.394;2023-10-08T13:09:43;12.10;;;2.57;;
77722;SDS011;67811;42.656;23.394;2023-10-08T13:12:08;7.40;;;2.60;;
77722;SDS011;67811;42.656;23.394;2023-10-08T13:14:33;18.47;;;3.93;;
77722;SDS011;67811;42.656;23.394;2023-10-08T13:16:58;9.73;;;2.27;;
77722;SDS011;67811;42.656;23.394;2023-10-08T13:19:24;9.53;;;2.17;;
77722;SDS011;67811;42.656;23.394;2023-10-08T13:21:49;12.90;;;2.77;;
77722;SDS011;67811;42.656;23.394;2023-10-08T13:24:14;7.63;;;2.67;;
77722;SDS011;67811;42.656;23.394;2023-10-08T13:26:40;11.60;;;2.83;;
77722;SDS011;67811;42.656;23.394;2023-10-08T13:29:05;9.02;;;2.65;;
77722;SDS011;67811;42.656;23.394;2023-10-08T13:31:30;7.78;;;2.88;;
77722;SDS011;67811;42.656;23.394;2023-10-08T13:33:56;6.67;;;2.03;;
77722;SDS011;67811;42.656;23.394;2023-10-08T13:36:21;8.87;;;3.17;;
77722;SDS011;67811;42.656;23.394;2023-10-08T13:38:46;8.88;;;2.50;;
77722;SDS011;67811;42.656;23.394;2023-10-08T13:41:12;9.47;;;2.40;;
77722;SDS011;67811;42.656;23.394;2023-10-08T13:43:37;8.57;;;2.22;;
77722;SDS011;67811;42.656;23.394;2023-10-08T13:46:03;9.90;;;2.37;;
77722;SDS011;67811;42.656;23.394;2023-10-08T13:48:30;13.13;;;3.13;;
77722;SDS011;67811;42.656;23.394;2023-10-08T13:50:56;8.80;;;2.83;;
77722;SDS011;67811;42.656;23.394;2023-10-08T13:53:21;8.93;;;2.73;;
77722;SDS011;67811;42.656;23.394;2023-10-08T13:55:47;11.30;;;2.80;;
77722;SDS011;67811;42.656;23.394;2023-10-08T13:58:12;7.17;;;2.63;;
77722;SDS011;67811;42.656;23.394;2023-10-08T14:00:37;11.93;;;4.68;;
77722;SDS011;67811;42.656;23.394;2023-10-08T14:03:02;9.97;;;3.07;;
77722;SDS011;67811;42.656;23.394;2023-10-08T14:05:28;10.83;;;3.23;;
77722;SDS011;67811;42.656;23.394;2023-10-08T14:07:53;7.07;;;3.07;;
77722;SDS011;67811;42.656;23.394;2023-10-08T14:10:18;9.20;;;2.57;;
77722;SDS011;67811;42.656;23.394;2023-10-08T14:12:47;9.27;;;2.67;;
77722;SDS011;67811;42.656;23.394;2023-10-08T14:15:12;8.63;;;2.53;;
77722;SDS011;67811;42.656;23.394;2023-10-08T14:17:37;8.30;;;2.77;;
77722;SDS011;67811;42.656;23.394;2023-10-08T14:20:02;10.00;;;2.47;;
77722;SDS011;67811;42.656;23.394;2023-10-08T14:22:28;8.23;;;2.65;;
77722;SDS011;67811;42.656;23.394;2023-10-08T14:24:53;12.17;;;2.37;;
77722;SDS011;67811;42.656;23.394;2023-10-08T14:27:19;10.17;;;2.37;;
77722;SDS011;67811;42.656;23.394;2023-10-08T14:29:44;8.00;;;2.37;;
77722;SDS011;67811;42.656;23.394;2023-10-08T14:32:09;11.40;;;2.90;;
77722;SDS011;67811;42.656;23.394;2023-10-08T14:34:38;10.05;;;2.40;;